Bookmark and Share
Track history (hours):
 

Emmagracht

Last reported at 2014-Apr-20 12:33 UTC. Time now 2014-Apr-20 13:35 UTC.
Position N 54°33' E 011°20'.

Length 136 m; beam 19 m; draft 9 m.

Type: Cargo ship. MMSI: 246308000.

NotesDate/timePositionNaut miles runAvg speedWind from/ knotsBaromVisibWave heightAir tempDewpointWater temp
2014-Apr-20 12:33N 54°33' E 011°20'1111.2
2014-Apr-20 11:33N 54°28' E 011°37'1212.4
2014-Apr-20 10:33N 54°26' E 011°58'1010.4
2014-Apr-20 09:33N 54°32' E 012°12'1211.7
2014-Apr-20 08:32N 54°41' E 012°25'1212.2
2014-Apr-20 07:33N 54°48' E 012°43'1412.7
2014-Apr-20 06:27N 54°52' E 013°06'1112.2
2014-Apr-20 05:32N 54°55' E 013°24'1212.2
2014-Apr-20 04:31N 54°60' E 013°44'1212.5
2014-Apr-20 03:33N 55°04' E 014°04'1312.7
2014-Apr-20 02:33N 55°14' E 014°19'1312.5
2014-Apr-20 01:33N 55°24' E 014°32'1212.3
2014-Apr-20 00:33N 55°31' E 014°50'1312.6
2014-Apr-19 23:33N 55°37' E 015°10'1312.7
2014-Apr-19 22:33N 55°43' E 015°29'1212.3
2014-Apr-19 21:33N 55°49' E 015°48'1212.4
2014-Apr-19 20:33N 55°56' E 016°07'1212.4
2014-Apr-19 19:33N 56°02' E 016°26'  
2014-Apr-10 21:10N 55°48' E 015°59'1614.5
2014-Apr-10 20:05N 55°40' E 015°35'914.2
2014-Apr-10 19:28N 55°37' E 015°21'1314.5
2014-Apr-10 18:33N 55°30' E 015°00'1514.7
2014-Apr-10 17:33N 55°23' E 014°38'1414.2
2014-Apr-10 16:33N 55°12' E 014°23'1414.3
2014-Apr-10 15:33N 55°01' E 014°06'1414.1
2014-Apr-10 14:33N 54°57' E 013°43'1414.3
2014-Apr-10 13:33N 54°52' E 013°19'1414.2
2014-Apr-10 12:33N 54°47' E 012°56'  

Dump ship's entire track history

sailing weather and tide predictions

Emmagracht — PDYX — position and weather